createdAt,value
2018-09-24T00:02:03.694Z,88.50
2018-09-24T00:04:31.631Z,89.50
2018-09-24T00:06:59.545Z,89.00
2018-09-24T00:09:27.490Z,89.30
2018-09-24T00:11:55.438Z,90.00
2018-09-24T00:14:23.401Z,90.20
2018-09-24T00:16:51.397Z,90.20
2018-09-24T00:19:19.312Z,90.40
2018-09-24T00:21:47.253Z,90.60
2018-09-24T00:24:15.167Z,90.70
2018-09-24T00:26:43.083Z,90.40
2018-09-24T00:29:11.021Z,90.30
2018-09-24T00:31:38.938Z,88.40
2018-09-24T00:34:06.938Z,90.00
2018-09-24T00:36:34.798Z,90.60
2018-09-24T00:39:02.949Z,90.00
2018-09-24T00:41:30.862Z,87.80
2018-09-24T00:43:58.810Z,90.20
2018-09-24T00:46:26.716Z,90.70
2018-09-24T00:48:54.649Z,90.10
2018-09-24T00:51:22.577Z,90.00
2018-09-24T00:53:50.534Z,88.90
2018-09-24T00:56:18.519Z,88.80
2018-09-24T00:58:46.492Z,88.30
2018-09-24T01:01:14.475Z,86.90
2018-09-24T01:03:42.414Z,85.80
2018-09-24T01:06:10.353Z,86.80
2018-09-24T01:08:38.283Z,86.70
2018-09-24T01:11:06.274Z,86.30
2018-09-24T01:13:34.251Z,86.80
2018-09-24T01:16:02.362Z,87.80
2018-09-24T01:18:30.342Z,86.70
2018-09-24T01:20:58.312Z,85.40
2018-09-24T01:23:26.245Z,87.00
2018-09-24T01:25:54.246Z,87.50
2018-09-24T01:28:22.208Z,85.40
2018-09-24T01:30:50.238Z,86.70
2018-09-24T01:33:18.238Z,88.20
2018-09-24T01:35:46.246Z,89.70
2018-09-24T01:38:14.190Z,89.90
2018-09-24T01:40:42.207Z,90.30
2018-09-24T01:43:10.219Z,90.60
2018-09-24T01:45:38.191Z,89.70
2018-09-24T01:48:06.202Z,90.00
2018-09-24T01:50:34.590Z,90.50
2018-09-24T01:53:07.023Z,90.10
2018-09-24T01:55:35.326Z,90.20
2018-09-24T01:58:03.277Z,90.60
2018-09-24T02:00:31.256Z,90.20
2018-09-24T02:02:59.283Z,89.70
2018-09-24T02:05:27.217Z,89.10
2018-09-24T02:07:55.228Z,87.40
2018-09-24T02:10:25.008Z,87.90
2018-09-24T02:12:56.843Z,88.40
2018-09-24T02:15:27.211Z,90.00
2018-09-24T02:17:55.249Z,90.80
2018-09-24T02:20:23.354Z,91.20
2018-09-24T02:22:51.314Z,91.80
2018-09-24T02:25:19.354Z,91.10
2018-09-24T02:27:47.355Z,91.40
2018-09-24T02:30:16.919Z,92.00
2018-09-24T02:32:44.893Z,92.00
2018-09-24T02:35:13.192Z,92.70
2018-09-24T02:37:41.232Z,93.00
2018-09-24T02:40:17.889Z,92.60
2018-09-24T02:42:46.022Z,92.40
2018-09-24T02:45:13.970Z,93.10
2018-09-24T02:47:41.957Z,92.80
2018-09-24T02:50:10.089Z,92.70
2018-09-24T02:52:38.055Z,92.70
2018-09-24T02:55:13.041Z,92.40
2018-09-24T02:57:41.332Z,92.80
2018-09-24T03:00:09.757Z,92.80
2018-09-24T03:02:38.154Z,92.50
2018-09-24T03:05:06.276Z,92.70
2018-09-24T03:07:34.400Z,92.80
2018-09-24T03:10:02.431Z,92.80
2018-09-24T03:12:30.454Z,92.30
2018-09-24T03:14:58.382Z,91.90
2018-09-24T03:17:26.496Z,91.80
2018-09-24T03:19:54.483Z,91.50
2018-09-24T03:22:24.546Z,91.30
2018-09-24T03:24:53.419Z,91.50
2018-09-24T03:27:22.395Z,91.70
2018-09-24T03:29:50.395Z,91.50
2018-09-24T03:32:18.437Z,91.90
2018-09-24T03:34:46.443Z,91.90
2018-09-24T03:37:14.457Z,92.40
2018-09-24T03:39:42.425Z,92.20
2018-09-24T03:42:10.467Z,92.40
2018-09-24T03:44:38.412Z,92.00
2018-09-24T03:47:06.414Z,91.50
2018-09-24T03:49:34.356Z,91.20
2018-09-24T03:52:02.396Z,90.60
2018-09-24T03:54:30.402Z,90.30
2018-09-24T03:56:58.374Z,89.80
2018-09-24T03:59:26.411Z,89.90
2018-09-24T04:01:54.391Z,89.40
2018-09-24T04:04:27.774Z,88.70
2018-09-24T04:07:01.132Z,88.20
2018-09-24T04:09:34.581Z,87.70
2018-09-24T04:12:07.960Z,88.10
2018-09-24T04:14:41.345Z,88.90
2018-09-24T04:17:14.726Z,88.90
2018-09-24T04:19:48.309Z,89.20
2018-09-24T04:22:21.753Z,88.60
2018-09-24T04:24:55.175Z,88.20
2018-09-24T04:27:28.702Z,89.10
2018-09-24T04:30:02.383Z,88.80
2018-09-24T04:32:35.965Z,88.30
2018-09-24T04:35:09.350Z,88.70
2018-09-24T04:37:42.739Z,90.00
2018-09-24T04:40:16.105Z,90.20
2018-09-24T04:42:49.494Z,90.50
2018-09-24T04:45:22.943Z,90.00
2018-09-24T04:47:56.312Z,90.00
2018-09-24T04:50:29.827Z,90.30
2018-09-24T04:53:03.164Z,90.60
2018-09-24T04:55:36.562Z,90.70
2018-09-24T04:58:09.955Z,90.80
2018-09-24T05:00:43.579Z,90.70
2018-09-24T05:03:16.902Z,90.30
2018-09-24T05:05:50.302Z,90.70
2018-09-24T05:08:23.817Z,90.80
2018-09-24T05:10:57.387Z,90.90
2018-09-24T05:13:30.761Z,91.20
2018-09-24T05:16:04.241Z,91.20
2018-09-24T05:18:37.615Z,91.40
2018-09-24T05:21:10.980Z,91.50
2018-09-24T05:23:51.197Z,91.40
2018-09-24T05:26:24.542Z,91.40
2018-09-24T05:28:57.939Z,91.50
2018-09-24T05:31:31.399Z,91.50
2018-09-24T05:34:04.741Z,91.30
2018-09-24T05:36:38.092Z,91.30
2018-09-24T05:39:16.258Z,91.40
2018-09-24T05:41:49.729Z,91.30
2018-09-24T05:44:23.209Z,91.60
2018-09-24T05:46:56.587Z,91.60
2018-09-24T05:49:30.059Z,91.90
2018-09-24T05:52:03.424Z,91.70
2018-09-24T05:54:36.995Z,91.80
2018-09-24T05:57:10.618Z,91.60
2018-09-24T05:59:43.925Z,91.40
2018-09-24T06:02:17.371Z,91.10
2018-09-24T06:04:50.796Z,91.10
2018-09-24T06:07:24.253Z,90.80
2018-09-24T06:09:57.592Z,91.10
2018-09-24T06:12:30.967Z,91.20
2018-09-24T06:15:04.407Z,90.70
2018-09-24T06:17:37.852Z,91.00
2018-09-24T06:20:11.290Z,90.90
2018-09-24T06:22:44.617Z,90.60
2018-09-24T06:25:18.011Z,90.70
2018-09-24T06:27:51.365Z,90.50
2018-09-24T06:30:24.679Z,89.60
2018-09-24T06:32:58.171Z,90.00
2018-09-24T06:35:31.627Z,90.00
2018-09-24T06:38:04.954Z,89.60
2018-09-24T06:40:38.274Z,90.00
2018-09-24T06:43:11.867Z,89.80
2018-09-24T06:45:45.215Z,88.00
2018-09-24T06:48:18.637Z,89.10
2018-09-24T06:50:52.005Z,89.20
2018-09-24T06:53:25.326Z,88.70
2018-09-24T06:55:58.736Z,88.50
2018-09-24T06:58:32.111Z,87.10
2018-09-24T07:01:05.542Z,86.30
2018-09-24T07:03:38.893Z,86.50
2018-09-24T07:09:00.391Z,87.00
2018-09-24T07:11:33.727Z,84.80
2018-09-24T07:14:07.095Z,83.80
2018-09-24T07:16:40.398Z,84.50
2018-09-24T07:19:13.742Z,84.40
2018-09-24T07:21:47.068Z,85.10
2018-09-24T07:24:20.482Z,84.30
2018-09-24T07:26:53.795Z,83.70
2018-09-24T07:29:27.258Z,84.50
2018-09-24T07:32:00.729Z,86.10
2018-09-24T07:34:34.133Z,84.70
2018-09-24T07:37:07.515Z,86.20
2018-09-24T07:39:40.949Z,85.40
2018-09-24T07:42:14.281Z,84.50
2018-09-24T07:44:47.642Z,86.80
2018-09-24T07:47:20.949Z,85.10
2018-09-24T07:49:54.370Z,83.90
2018-09-24T07:52:27.967Z,82.90
2018-09-24T07:55:01.431Z,82.50
2018-09-24T07:57:34.882Z,84.10
2018-09-24T08:00:08.316Z,83.50
2018-09-24T08:02:41.675Z,83.90
2018-09-24T08:05:15.074Z,84.30
2018-09-24T08:07:48.429Z,80.90
2018-09-24T08:10:21.790Z,80.00
2018-09-24T08:12:55.181Z,79.20
2018-09-24T08:15:28.616Z,77.90
2018-09-24T08:18:02.008Z,76.80
2018-09-24T08:20:35.409Z,76.70
2018-09-24T08:23:08.822Z,76.40
2018-09-24T08:25:42.220Z,75.60
2018-09-24T08:28:15.586Z,76.40
2018-09-24T08:30:49.013Z,74.80
2018-09-24T08:33:22.415Z,73.40
2018-09-24T08:35:55.870Z,72.70
2018-09-24T08:38:29.253Z,73.40
2018-09-24T08:41:02.590Z,74.00
2018-09-24T08:43:35.956Z,71.50
2018-09-24T08:46:09.329Z,71.90
2018-09-24T08:48:42.902Z,72.70
2018-09-24T08:51:16.309Z,72.40
2018-09-24T08:53:49.710Z,70.90
2018-09-24T08:56:23.169Z,73.40
2018-09-24T08:58:56.571Z,71.50
2018-09-24T09:01:29.932Z,70.90
2018-09-24T09:04:03.379Z,71.20
2018-09-24T09:06:36.774Z,70.80
2018-09-24T09:09:14.464Z,71.50
2018-09-24T09:11:48.593Z,70.10
2018-09-24T09:14:21.919Z,68.00
2018-09-24T09:16:55.309Z,69.20
2018-09-24T09:19:28.925Z,69.40
2018-09-24T09:22:02.346Z,68.90
2018-09-24T09:24:35.794Z,68.70
2018-09-24T09:27:09.187Z,70.20
2018-09-24T09:29:43.343Z,69.40
2018-09-24T09:32:16.875Z,70.10
2018-09-24T09:34:50.311Z,70.30
2018-09-24T09:37:23.917Z,70.50
2018-09-24T09:39:57.331Z,72.50
2018-09-24T09:42:30.770Z,70.20
2018-09-24T09:45:04.294Z,65.90
2018-09-24T09:47:37.885Z,67.10
2018-09-24T09:50:11.289Z,64.20
2018-09-24T09:52:44.720Z,65.60
2018-09-24T09:55:18.081Z,66.40
2018-09-24T09:57:51.689Z,66.80
2018-09-24T10:00:25.163Z,66.40
2018-09-24T10:02:58.598Z,67.40
2018-09-24T10:05:32.372Z,64.20
2018-09-24T10:08:05.820Z,62.50
2018-09-24T10:10:39.243Z,62.90
2018-09-24T10:13:12.844Z,61.50
2018-09-24T10:15:46.436Z,62.90
2018-09-24T10:18:19.926Z,63.20
2018-09-24T10:20:53.416Z,62.10
2018-09-24T10:23:26.855Z,60.30
2018-09-24T10:26:00.286Z,61.40
2018-09-24T10:28:34.480Z,62.80
2018-09-24T10:31:07.994Z,62.80
2018-09-24T10:33:41.574Z,61.30
2018-09-24T10:36:14.942Z,60.90
2018-09-24T10:38:48.429Z,62.20
2018-09-24T10:41:22.072Z,62.50
2018-09-24T10:43:55.462Z,63.90
2018-09-24T10:46:28.841Z,66.50
2018-09-24T10:49:02.297Z,63.10
2018-09-24T10:51:35.817Z,61.00
2018-09-24T10:54:09.221Z,59.60
2018-09-24T10:56:42.605Z,61.00
2018-09-24T10:59:16.000Z,61.30
2018-09-24T11:01:49.469Z,62.50
2018-09-24T11:04:22.875Z,60.60
2018-09-24T11:06:56.411Z,61.10
2018-09-24T11:09:29.883Z,59.20
2018-09-24T11:12:03.362Z,59.70
2018-09-24T11:14:36.806Z,59.30
2018-09-24T11:17:10.368Z,60.80
2018-09-24T11:19:43.723Z,60.60
2018-09-24T11:22:17.173Z,59.90
2018-09-24T11:24:50.544Z,59.60
2018-09-24T11:27:24.661Z,58.10
2018-09-24T11:29:58.194Z,57.40
2018-09-24T11:32:31.501Z,57.70
2018-09-24T11:35:04.969Z,55.90
2018-09-24T11:37:38.435Z,55.10
2018-09-24T11:40:12.598Z,56.60
2018-09-24T11:42:46.073Z,54.70
2018-09-24T11:45:19.483Z,55.30
2018-09-24T11:47:52.865Z,54.30
2018-09-24T11:50:26.362Z,55.10
2018-09-24T11:52:59.757Z,56.20
2018-09-24T11:55:33.250Z,56.30
2018-09-24T11:58:06.944Z,55.90
2018-09-24T12:00:40.421Z,57.50
2018-09-24T12:03:13.812Z,55.60
2018-09-24T12:05:47.211Z,54.50
2018-09-24T12:08:20.688Z,54.30
2018-09-24T12:10:54.339Z,54.90
2018-09-24T12:13:27.844Z,53.60
2018-09-24T12:16:01.385Z,53.40
2018-09-24T12:18:34.899Z,53.30
2018-09-24T12:21:08.396Z,53.80
2018-09-24T12:23:41.815Z,54.50
2018-09-24T12:26:15.219Z,53.50
2018-09-24T12:28:48.700Z,53.20
2018-09-24T12:31:22.109Z,53.80
2018-09-24T12:33:55.588Z,54.80
2018-09-24T12:36:29.030Z,53.50
2018-09-24T12:39:02.607Z,53.30
2018-09-24T12:41:36.557Z,53.00
2018-09-24T12:44:10.103Z,53.10
2018-09-24T12:46:43.633Z,53.80
2018-09-24T12:49:17.090Z,52.70
2018-09-24T12:51:50.612Z,53.60
2018-09-24T12:54:23.972Z,53.40
2018-09-24T12:56:58.077Z,51.80
2018-09-24T12:59:31.632Z,52.40
2018-09-24T13:02:05.114Z,52.70
2018-09-24T13:04:38.589Z,53.40
2018-09-24T13:07:12.113Z,53.90
2018-09-24T13:09:45.661Z,50.20
2018-09-24T13:12:19.121Z,51.70
2018-09-24T13:14:53.481Z,50.30
2018-09-24T13:17:27.043Z,52.40
2018-09-24T13:20:00.382Z,51.20
2018-09-24T13:22:33.813Z,51.20
2018-09-24T13:25:07.189Z,52.40
2018-09-24T13:27:40.610Z,52.40
2018-09-24T13:30:13.995Z,51.10
2018-09-24T13:32:47.489Z,50.60
2018-09-24T13:35:20.987Z,52.10
2018-09-24T13:37:54.449Z,52.80
2018-09-24T13:40:27.810Z,52.80
2018-09-24T13:43:01.261Z,52.40
2018-09-24T13:45:34.682Z,53.00
2018-09-24T13:48:08.184Z,53.10
2018-09-24T13:50:41.601Z,53.10
2018-09-24T13:53:15.315Z,53.60
2018-09-24T13:55:48.902Z,51.90
2018-09-24T13:58:22.474Z,51.10
2018-09-24T14:00:55.849Z,51.00
2018-09-24T14:03:29.262Z,51.50
2018-09-24T14:06:02.694Z,51.70
2018-09-24T14:08:36.107Z,52.10
2018-09-24T14:11:09.539Z,50.20
2018-09-24T14:13:43.143Z,48.70
2018-09-24T14:16:16.556Z,48.80
2018-09-24T14:18:50.129Z,45.50
2018-09-24T14:21:23.519Z,45.80
2018-09-24T14:23:56.978Z,46.70
2018-09-24T14:26:30.405Z,46.90
2018-09-24T14:29:03.771Z,46.90
2018-09-24T14:31:37.161Z,45.90
2018-09-24T14:34:10.493Z,46.10
2018-09-24T14:36:43.910Z,46.40
2018-09-24T14:39:17.337Z,46.90
2018-09-24T14:41:51.010Z,48.20
2018-09-24T14:44:24.476Z,46.60
2018-09-24T14:46:57.826Z,47.20
2018-09-24T14:49:31.211Z,47.70
2018-09-24T14:52:04.778Z,47.90
2018-09-24T14:54:38.238Z,48.30
2018-09-24T14:57:11.815Z,47.10
2018-09-24T14:59:45.312Z,48.30
2018-09-24T15:02:18.733Z,47.70
2018-09-24T15:04:52.169Z,48.30
2018-09-24T15:07:25.602Z,48.70
2018-09-24T15:09:59.100Z,48.60
2018-09-24T15:12:32.646Z,49.00
2018-09-24T15:15:06.022Z,49.50
2018-09-24T15:17:39.392Z,50.30
2018-09-24T15:20:12.905Z,49.00
2018-09-24T15:22:46.517Z,48.00
2018-09-24T15:25:20.047Z,47.60
2018-09-24T15:27:53.417Z,46.60
2018-09-24T15:30:27.546Z,47.50
2018-09-24T15:33:01.014Z,48.40
2018-09-24T15:35:34.496Z,49.30
2018-09-24T15:38:08.006Z,48.70
2018-09-24T15:40:41.675Z,49.10
2018-09-24T15:43:15.173Z,49.60
2018-09-24T15:45:48.740Z,50.10
2018-09-24T15:48:22.098Z,50.00
2018-09-24T15:50:55.506Z,49.90
2018-09-24T15:53:28.923Z,49.70
2018-09-24T15:56:02.337Z,49.10
2018-09-24T15:58:35.761Z,50.00
2018-09-24T16:01:09.233Z,50.50
2018-09-24T16:03:42.622Z,50.50
2018-09-24T16:06:16.050Z,49.90
2018-09-24T16:08:49.407Z,50.60
2018-09-24T16:11:23.078Z,50.90
2018-09-24T16:13:56.565Z,51.10
2018-09-24T16:16:29.965Z,51.30
2018-09-24T16:19:03.315Z,51.30
2018-09-24T16:21:36.726Z,51.70
2018-09-24T16:24:10.240Z,50.90
2018-09-24T16:26:43.648Z,51.60
2018-09-24T16:29:17.009Z,51.30
2018-09-24T16:31:50.572Z,51.50
2018-09-24T16:34:24.007Z,51.80
2018-09-24T16:36:57.509Z,51.60
2018-09-24T16:39:30.941Z,51.90
2018-09-24T16:42:04.547Z,51.80
2018-09-24T16:44:38.153Z,51.60
2018-09-24T16:47:12.060Z,51.80
2018-09-24T16:49:45.561Z,51.60
2018-09-24T16:52:19.086Z,52.70
2018-09-24T16:54:52.481Z,53.80
2018-09-24T16:57:25.854Z,53.80
2018-09-24T16:59:59.208Z,54.40
2018-09-24T17:02:32.889Z,54.50
2018-09-24T17:05:06.318Z,54.60
2018-09-24T17:07:39.710Z,54.80
2018-09-24T17:10:14.646Z,55.20
2018-09-24T17:12:48.630Z,54.90
2018-09-24T17:15:22.116Z,55.00
2018-09-24T17:17:55.554Z,55.10
2018-09-24T17:20:29.045Z,55.80
2018-09-24T17:23:02.481Z,55.40
2018-09-24T17:25:35.969Z,55.90
2018-09-24T17:28:09.484Z,56.20
2018-09-24T17:30:43.013Z,56.20
2018-09-24T17:33:16.449Z,56.90
2018-09-24T17:35:49.970Z,56.90
2018-09-24T17:38:23.397Z,56.30
2018-09-24T17:40:57.056Z,56.10
2018-09-24T17:43:30.760Z,56.50
2018-09-24T17:46:04.256Z,56.80
2018-09-24T17:48:37.974Z,57.10
2018-09-24T17:51:12.025Z,56.80
2018-09-24T17:53:45.488Z,57.00
2018-09-24T17:56:18.965Z,57.40
2018-09-24T17:58:52.477Z,56.90
2018-09-24T18:01:25.965Z,56.80
2018-09-24T18:03:59.619Z,56.70
2018-09-24T18:06:33.166Z,57.10
2018-09-24T18:09:06.746Z,57.10
2018-09-24T18:11:41.202Z,57.00
2018-09-24T18:14:14.925Z,56.90
2018-09-24T18:16:48.584Z,57.00
2018-09-24T18:19:21.996Z,57.30
2018-09-24T18:21:55.486Z,57.70
2018-09-24T18:24:28.879Z,57.30
2018-09-24T18:27:02.348Z,58.00
2018-09-24T18:29:36.445Z,58.10
2018-09-24T18:32:11.637Z,58.10
2018-09-24T18:34:45.559Z,58.20
2018-09-24T18:37:20.453Z,58.30
2018-09-24T18:39:53.863Z,58.20
2018-09-24T18:42:27.622Z,58.40
2018-09-24T18:45:01.742Z,58.40
2018-09-24T18:47:36.140Z,58.40
2018-09-24T18:50:09.798Z,58.60
2018-09-24T18:52:45.178Z,58.60
2018-09-24T18:55:18.581Z,58.70
2018-09-24T18:57:51.933Z,58.70
2018-09-24T19:00:25.575Z,58.50
2018-09-24T19:02:59.094Z,58.50
2018-09-24T19:05:32.474Z,58.40
2018-09-24T19:08:05.883Z,58.50
2018-09-24T19:10:40.159Z,59.10
2018-09-24T19:13:13.817Z,58.90
2018-09-24T19:15:47.276Z,59.00
2018-09-24T19:18:21.814Z,59.00
2018-09-24T19:20:56.818Z,58.90
2018-09-24T19:23:31.192Z,58.80
2018-09-24T19:26:04.694Z,59.20
2018-09-24T19:28:38.072Z,59.10
2018-09-24T19:31:11.510Z,59.30
2018-09-24T19:33:44.964Z,59.70
2018-09-24T19:36:18.381Z,59.20
2018-09-24T19:38:51.834Z,59.00
2018-09-24T19:41:25.219Z,59.00
2018-09-24T19:43:59.412Z,59.00
2018-09-24T19:46:33.218Z,59.10
2018-09-24T19:49:07.466Z,59.20
2018-09-24T19:51:41.389Z,59.20
2018-09-24T19:54:14.805Z,60.70
2018-09-24T19:56:48.785Z,59.30
2018-09-24T19:59:22.378Z,59.80
2018-09-24T20:01:55.773Z,62.00
2018-09-24T20:04:29.081Z,62.60
2018-09-24T20:07:02.447Z,62.60
2018-09-24T20:09:35.824Z,62.60
2018-09-24T20:12:09.264Z,62.70
2018-09-24T20:14:42.657Z,63.20
2018-09-24T20:17:15.996Z,61.90
2018-09-24T20:19:49.441Z,64.70
2018-09-24T20:22:22.828Z,64.90
2018-09-24T20:24:56.265Z,64.20
2018-09-24T20:27:29.726Z,64.10
2018-09-24T20:30:03.336Z,65.80
2018-09-24T20:32:36.713Z,65.40
2018-09-24T20:35:10.074Z,64.90
2018-09-24T20:37:43.595Z,64.80
2018-09-24T20:40:17.098Z,63.90
2018-09-24T20:42:50.547Z,61.80
2018-09-24T20:45:23.939Z,61.90
2018-09-24T20:47:57.333Z,61.40
2018-09-24T20:50:30.731Z,61.20
2018-09-24T20:53:04.232Z,61.20
2018-09-24T20:55:37.786Z,61.00
2018-09-24T20:58:11.423Z,61.40
2018-09-24T21:00:44.790Z,61.50
2018-09-24T21:03:18.262Z,61.30
2018-09-24T21:05:51.709Z,61.10
2018-09-24T21:08:25.226Z,61.30
2018-09-24T21:10:58.725Z,61.50
2018-09-24T21:13:32.198Z,63.20
2018-09-24T21:16:05.786Z,63.30
2018-09-24T21:18:39.228Z,63.10
2018-09-24T21:21:12.537Z,62.20
2018-09-24T21:23:45.928Z,63.20
2018-09-24T21:26:19.474Z,63.60
2018-09-24T21:28:52.885Z,63.40
2018-09-24T21:31:26.418Z,64.00
2018-09-24T21:33:59.907Z,62.60
2018-09-24T21:36:33.269Z,62.80
2018-09-24T21:39:06.806Z,62.80
2018-09-24T21:41:40.287Z,64.40
2018-09-24T21:44:13.733Z,65.00
2018-09-24T21:46:47.124Z,64.50
2018-09-24T21:49:20.551Z,63.90
2018-09-24T21:51:53.893Z,64.40
2018-09-24T21:54:27.388Z,64.70
2018-09-24T21:57:00.762Z,65.10
2018-09-24T21:59:34.294Z,65.10
2018-09-24T22:02:07.729Z,65.00
2018-09-24T22:04:41.214Z,64.90
2018-09-24T22:07:14.637Z,65.20
2018-09-24T22:09:48.321Z,65.40
2018-09-24T22:12:21.738Z,65.30
2018-09-24T22:14:55.259Z,65.30
2018-09-24T22:17:28.677Z,66.00
2018-09-24T22:20:02.135Z,65.60
2018-09-24T22:22:35.495Z,66.30
2018-09-24T22:25:08.994Z,67.30
2018-09-24T22:27:42.397Z,66.70
2018-09-24T22:30:15.817Z,67.50
2018-09-24T22:32:49.173Z,67.30
2018-09-24T22:35:22.631Z,67.70
2018-09-24T22:37:56.011Z,67.70
2018-09-24T22:40:29.406Z,67.90
2018-09-24T22:43:02.871Z,68.40
2018-09-24T22:45:36.269Z,68.10
2018-09-24T22:48:09.733Z,68.20
2018-09-24T22:50:43.137Z,68.50
2018-09-24T22:53:16.525Z,68.90
2018-09-24T22:55:49.930Z,69.70
2018-09-24T22:58:23.301Z,69.20
2018-09-24T23:00:56.749Z,68.80
2018-09-24T23:03:30.106Z,69.00
2018-09-24T23:06:03.474Z,69.40
2018-09-24T23:08:36.846Z,68.60
2018-09-24T23:11:10.289Z,69.00
2018-09-24T23:13:43.701Z,69.10
2018-09-24T23:16:17.187Z,69.20
2018-09-24T23:18:50.608Z,69.80
2018-09-24T23:21:24.048Z,69.40
2018-09-24T23:23:57.561Z,70.50
2018-09-24T23:26:31.004Z,70.40
2018-09-24T23:29:04.456Z,70.80
2018-09-24T23:31:37.998Z,71.40
2018-09-24T23:34:11.455Z,71.60
2018-09-24T23:36:44.893Z,71.90
2018-09-24T23:39:18.218Z,72.50
2018-09-24T23:41:51.637Z,72.10
2018-09-24T23:44:25.217Z,72.30
2018-09-24T23:46:58.698Z,72.60
2018-09-24T23:49:32.105Z,72.90
2018-09-24T23:52:05.589Z,73.70
2018-09-24T23:54:38.940Z,74.30
2018-09-24T23:57:12.346Z,74.00
2018-09-24T23:59:46.035Z,74.10
